x

Ilm2 - 5 Miles Se Of Wrightsville Beach, Nc (41038) Weather Station

12:08am - Fri 20th Jan 2017 All times are EST. -5 hours from GMT.

  • Wind
    4mph, 9mph gusts
  • 空気 Temp 56°f
  • Sea Pressure 1015.4mb
  • Ilm2 - 5 Miles Se Of Wrightsville Beach, Nc
  • Ilm2 - 5 Miles Se Of Wrightsville Beach, Nc

More Historic Weather Station data

Upgrade to MSW Pro to gain access to the past 30 days of data for over 8000 Wavebouys and Weather Stations around the globe.

Join Pro

Comparision Forecast

View Surf forecast
   
Fri 01/20 12:08am 4 9 mph 1015.4mb 56f
Thu 01/19 8:08pm 4 9 mph 1016.2mb 55f
12:08pm 11 18 mph 1018.4mb 53f
10:08am 13 22 mph 1019.5mb 51f
8:08am 16 25 mph 1018.8mb 50f
7:08am 13 20 mph 1018.1mb 50f
3:08am 9 13 mph 1017.1mb 53f
1:08am 4 9 mph 1017.1mb 55f
Wed 01/18 11:08pm 9 13 mph 1017.5mb 55f
4:08pm 11 18 mph 1013.1mb 64f
12:08pm 11 13 mph 1014.2mb 57f
11:08am 9 16 mph 1015.4mb 58f
9:08am 16 22 mph 1015.6mb 58f
5:08am 16 20 mph 1016.5mb 59f
3:08am 16 25 mph 1016.9mb 59f
1:08am 13 18 mph 1018mb 58f
12:08am 13 20 mph 1018.8mb 58f
Tue 01/17 11:08pm 13 22 mph 1019.6mb 59f
10:08pm 13 18 mph 1020.6mb 58f
8:08pm 7 11 mph 1021.2mb 57f
5:08pm 11 18 mph 1021.6mb 58f
4:08pm 9 13 mph 1021.1mb 59f
3:08pm 7 9 mph 1021.4mb 60f
1:08pm 4 9 mph 1022.7mb 54f
12:08pm 7 9 mph 1023.6mb 53f
11:08am 7 9 mph 1024.4mb 53f
10:08am 9 11 mph 1024.8mb 53f
9:08am 7 9 mph 1024.6mb 53f
6:08am 11 13 mph 1024mb 52f
5:08am 9 11 mph 1023.8mb 53f
3:08am 9 13 mph 1024.7mb 52f
12:08am 7 9 mph 1026mb 53f
Mon 01/16 10:08pm 11 16 mph 1026.8mb 54f
9:08pm 11 16 mph 1027.2mb 54f
8:08pm 13 18 mph 1027.5mb 54f
7:08pm 11 20 mph 1027.7mb 54f
4:08pm 11 18 mph 1027.9mb 53f
12:08pm 13 27 mph 1029.1mb 50f
8:08am 18 31 mph 1028.5mb 49f
7:08am 16 27 mph 1028.1mb 49f